»·PEaware :: N704YA CYYJ-KRNT

N704YA :: CYYJ-KRNT

FLIGHT INFORMATION

Flight Status: Arrived
Operator: Privately registered:
United States
More flights under this callsign
Pilot: Wayne R. (17783)
Aircraft: CESSNA 150 COMMUTER AEROBAT
(C150)
More flights by this aircraft type
Origin: CYYJ Victoria Intl
Canada
Destination: KRNT Renton Mun
United States
More flights between these airports :: More routes between these airports
Route:
File this flight plan on PilotEdge
Remarks:
Altitude:
(Current/Filed)
4,500ft
Speed:
(Current/Filed)
135kts
Departed: 27-Feb-20 07:44 PM
Arrived: 27-Feb-20 08:45 PM
Distance/Time
Traveled:
85nm/1:01
Distance/Time
To Go:
Arrived

Flight Plot

Page will automatically refresh every two minutes.


Map Options




Map Legend


Flown Route
Filed Route
Departure Airport
Arrival Airport
Navaid (VOR, NDB)
Fix

Horizontal Profiles

Position Reports

Time Latitude Longitude Heading Altitude Ground
Speed
27-Feb-20 19:41 48.653016 -123.433656 152 63ft 0kts
27-Feb-20 19:42 48.652545 -123.433257 150 61ft 0kts
27-Feb-20 19:43 48.642852 -123.425683 147 236ft 65kts
27-Feb-20 19:44 48.625571 -123.408632 153 722ft 78kts
27-Feb-20 19:45 48.607167 -123.389371 143 1138ft 80kts
27-Feb-20 19:46 48.590005 -123.368050 143 1528ft 80kts
27-Feb-20 19:47 48.572825 -123.345815 143 1883ft 81kts
27-Feb-20 19:48 48.556511 -123.323923 144 2329ft 73kts
27-Feb-20 19:49 48.540933 -123.302899 144 2727ft 76kts
27-Feb-20 19:50 48.525189 -123.281185 144 3096ft 78kts
27-Feb-20 19:51 48.507232 -123.256727 144 3189ft 90kts
27-Feb-20 19:52 48.488082 -123.230927 144 3204ft 93kts
27-Feb-20 19:53 48.468211 -123.204564 144 3120ft 95kts
27-Feb-20 19:55 48.448691 -123.179029 144 3120ft 90kts
27-Feb-20 19:56 48.429569 -123.154364 145 3119ft 90kts
27-Feb-20 19:57 48.410967 -123.130682 145 3195ft 86kts
27-Feb-20 19:58 48.393464 -123.108542 145 3521ft 74kts
27-Feb-20 19:59 48.377929 -123.088173 140 4044ft 76kts
27-Feb-20 20:00 48.363056 -123.065301 141 4547ft 77kts
27-Feb-20 20:01 48.347462 -123.042152 146 4990ft 79kts
27-Feb-20 20:02 48.330585 -123.020313 146 5389ft 82kts
27-Feb-20 20:03 48.312263 -122.996943 146 5603ft 90kts
27-Feb-20 20:04 48.292408 -122.972330 146 5630ft 94kts
27-Feb-20 20:05 48.271257 -122.947205 146 5598ft 97kts
27-Feb-20 20:06 48.249661 -122.922382 144 5584ft 98kts
27-Feb-20 20:07 48.228900 -122.895929 141 5579ft 97kts
27-Feb-20 20:08 48.208180 -122.869784 141 5566ft 97kts
27-Feb-20 20:09 48.187357 -122.843516 139 5557ft 97kts
27-Feb-20 20:10 48.167821 -122.815348 137 5546ft 97kts
27-Feb-20 20:11 48.148222 -122.787694 137 5561ft 95kts
27-Feb-20 20:12 48.128495 -122.761027 137 5538ft 95kts
27-Feb-20 20:13 48.108653 -122.734263 137 5442ft 102kts
27-Feb-20 20:13 48.090625 -122.709834 137 5144ft 104kts
27-Feb-20 20:15 48.067133 -122.673166 122 4608ft 105kts
27-Feb-20 20:15 48.053442 -122.643182 124 4199ft 104kts
27-Feb-20 20:16 48.037992 -122.606862 119 3735ft 103kts
27-Feb-20 20:18 48.022662 -122.562212 113 3223ft 103kts
27-Feb-20 20:18 48.012741 -122.530271 113 3179ft 102kts
27-Feb-20 20:19 48.000630 -122.492402 113 3350ft 102kts
27-Feb-20 20:20 47.987824 -122.454253 113 3465ft 103kts
27-Feb-20 20:21 47.974613 -122.415676 113 3482ft 104kts
27-Feb-20 20:22 47.961199 -122.376916 113 3526ft 105kts
27-Feb-20 20:23 47.947868 -122.338453 114 3567ft 105kts
27-Feb-20 20:24 47.933734 -122.300530 122 3519ft 106kts
27-Feb-20 20:25 47.916823 -122.264340 128 3466ft 106kts
27-Feb-20 20:26 47.896588 -122.232765 135 3484ft 106kts
27-Feb-20 20:27 47.874095 -122.202853 138 3495ft 106kts
27-Feb-20 20:28 47.850314 -122.175870 145 3212ft 107kts
27-Feb-20 20:29 47.821746 -122.164091 167 2830ft 106kts
27-Feb-20 20:30 47.793377 -122.154318 167 2600ft 104kts
27-Feb-20 20:31 47.764946 -122.146823 173 2495ft 103kts
27-Feb-20 20:32 47.736887 -122.142203 182 2587ft 102kts
27-Feb-20 20:33 47.708067 -122.142840 182 2656ft 102kts
27-Feb-20 20:34 47.679529 -122.143509 182 2635ft 102kts
27-Feb-20 20:35 47.650928 -122.144258 182 2612ft 102kts
27-Feb-20 20:36 47.622418 -122.145061 182 2494ft 102kts
27-Feb-20 20:37 47.593945 -122.145960 182 2351ft 102kts
27-Feb-20 20:38 47.565590 -122.149089 188 2067ft 101kts
27-Feb-20 20:39 47.539138 -122.161900 219 1545ft 102kts
27-Feb-20 20:40 47.519809 -122.188785 222 1029ft 93kts
27-Feb-20 20:41 47.495558 -122.190899 176 922ft 84kts
27-Feb-20 20:42 47.472814 -122.196132 252 800ft 85kts
27-Feb-20 20:43 47.486253 -122.214670 356 82ft 70kts
27-Feb-20 20:44 47.493137 -122.214211 138 22ft 0kts
27-Feb-20 20:45 47.493137 -122.214211 138 22ft 0kts

Navigation Log

Ident Type
Flight plan parsing failed, navigation log unavailable